首页
METAR-TAF:

METAR-TAF

机场 :

臺北, 台湾

臺灣桃園國際機場

纬度: 25-05N, 经度: 121-13E, 海拔: 33米

当前天气观测

该预报发布于22分钟前的22:00 UTC
风速13节,风向东转东北
温度 20°C
湿度 73%
气压 1013 hPa
能见度10公里或以上
少量云层高于2000英尺
多云层高于20000英尺

METAR: RCTP 252200Z 07013KT 9999 FEW020 BKN200 20/15 Q1013 NOSIG RMK A2994

时间: 06:22 (22:22 UTC)

预报

该预报发布于5小时和22分钟前的17:00 UTC
预报有效从25日的 18点(UTC)到 26日的 24点(UTC)
风速9节,风向
能见度10公里或以上
少量云层高于2000英尺
多云层高于3200英尺
短暂存在
从 24日的 02点(UTC)到 24日的 09点(UTC)
风速16节,风向东北

TAF: RCTP 251700Z 2518/2624 08009KT 9999 FEW020 BKN032 TEMPO 2402/2409 04016KT

超过4000个机场的气象观测和天气预报(METAR&TAF报告)。

可查询的气象台以黄色和红色小点在地图上表示。

将鼠标移到小点上方,可查看气象台名称。

然后点击查看天气观测和预报。

如需切换地图:点击带黑十字的绿色按钮放大地图;点击带横线的绿色按钮缩小地图;或者点击绿色箭头查看邻近地区的地图。


METAR-TAF: